Map

Track Data

SID SEASON NUMBER BASIN SUBBASIN NAME ISO_TIME NATURE LAT LON WMO_WIND WMO_PRES WMO_AGENCY TRACK_TYPE DIST2LAND LANDFALL IFLAG USA_AGENCY USA_ATCF_ID USA_LAT USA_LON USA_RECORD USA_STATUS USA_WIND USA_PRES USA_SSHS USA_R34_NE USA_R34_SE USA_R34_SW USA_R34_NW USA_R50_NE USA_R50_SE USA_R50_SW USA_R50_NW USA_R64_NE USA_R64_SE USA_R64_SW USA_R64_NW USA_POCI USA_ROCI USA_RMW USA_EYE TOKYO_LAT TOKYO_LON TOKYO_GRADE TOKYO_WIND TOKYO_PRES TOKYO_R50_DIR TOKYO_R50_LONG TOKYO_R50_SHORT TOKYO_R30_DIR TOKYO_R30_LONG TOKYO_R30_SHORT TOKYO_LAND CMA_LAT CMA_LON CMA_CAT CMA_WIND CMA_PRES HKO_LAT HKO_LON HKO_CAT HKO_WIND HKO_PRES NEWDELHI_LAT NEWDELHI_LON NEWDELHI_GRADE NEWDELHI_WIND NEWDELHI_PRES NEWDELHI_CI NEWDELHI_DP NEWDELHI_POCI REUNION_LAT REUNION_LON REUNION_TYPE REUNION_WIND REUNION_PRES REUNION_TNUM REUNION_CI REUNION_RMW REUNION_R34_NE REUNION_R34_SE REUNION_R34_SW REUNION_R34_NW REUNION_R50_NE REUNION_R50_SE REUNION_R50_SW REUNION_R50_NW REUNION_R64_NE REUNION_R64_SE REUNION_R64_SW REUNION_R64_NW BOM_LAT BOM_LON BOM_TYPE BOM_WIND BOM_PRES BOM_TNUM BOM_CI BOM_RMW BOM_R34_NE BOM_R34_SE BOM_R34_SW BOM_R34_NW BOM_R50_NE BOM_R50_SE BOM_R50_SW BOM_R50_NW BOM_R64_NE BOM_R64_SE BOM_R64_SW BOM_R64_NW BOM_ROCI BOM_POCI BOM_EYE BOM_POS_METHOD BOM_PRES_METHOD NADI_LAT NADI_LON NADI_CAT NADI_WIND NADI_PRES WELLINGTON_LAT WELLINGTON_LON WELLINGTON_WIND WELLINGTON_PRES DS824_LAT DS824_LON DS824_STAGE DS824_WIND DS824_PRES TD9636_LAT TD9636_LON TD9636_STAGE TD9636_WIND TD9636_PRES TD9635_LAT TD9635_LON TD9635_WIND TD9635_PRES TD9635_ROCI NEUMANN_LAT NEUMANN_LON NEUMANN_CLASS NEUMANN_WIND NEUMANN_PRES MLC_LAT MLC_LON MLC_CLASS MLC_WIND MLC_PRES USA_GUST BOM_GUST BOM_GUST_PER REUNION_GUST REUNION_GUST_PER USA_SEAHGT USA_SEARAD_NE USA_SEARAD_SE USA_SEARAD_SW USA_SEARAD_NW STORM_SPEED STORM_DIR
1883234N18088 1883 25 NI BB NOT_NAMED 1883-08-22 00:00:00 TS 18.3000 88.0000 main 253 246 _________O____ -1 18.3000 88.0000 TC 30 3 267
1883234N18088 1883 25 NI BB NOT_NAMED 1883-08-22 03:00:00 TS 18.2934 87.8666 main 246 234 _________PO___ -1 18.2900 87.8000 TC 30 18.3000 88.0000 1 3 271
1883234N18088 1883 25 NI BB NOT_NAMED 1883-08-22 06:00:00 TS 18.3069 87.6812 main 234 222 _________OP___ -1 18.3000 87.6000 TC 30 18.3173 87.8031 1 4 277
1883234N18088 1883 25 NI BB NOT_NAMED 1883-08-22 09:00:00 TS 18.3404 87.4878 main 222 202 _________PP___ -1 18.3425 87.4000 TC 30 18.3376 87.6049 1 4 282
1883234N18088 1883 25 NI BB NOT_NAMED 1883-08-22 12:00:00 TS 18.3821 87.3022 main 202 193 _________OP___ -1 18.4000 87.2000 TC 30 18.3641 87.4043 1 4 283
1883234N18088 1883 25 NI BB NOT_NAMED 1883-08-22 15:00:00 TS 18.4250 87.1000 main 193 175 _________PO___ -1 18.4500 87.0000 TC 30 18.4000 87.2000 1 4 283
1883234N18088 1883 25 NI BB NOT_NAMED 1883-08-22 18:00:00 TS 18.4734 86.8960 main 175 168 _________OP___ -1 18.5000 86.8000 TC 30 18.4469 86.9919 1 4 285
1883234N18088 1883 25 NI BB NOT_NAMED 1883-08-22 21:00:00 TS 18.5288 86.6888 main 168 151 _________PP___ -1 18.5575 86.5925 TC 30 18.5000 86.7851 1 4 285
1883234N18088 1883 25 NI BB NOT_NAMED 1883-08-23 00:00:00 TS 18.5766 86.4928 main 151 144 _________OP___ -1 18.6000 86.4000 TC 30 18.5531 86.5857 1 4 282
1883234N18088 1883 25 NI BB NOT_NAMED 1883-08-23 03:00:00 TS 18.6000 86.3212 main 144 139 _________PO___ -1 18.6000 86.2425 TC 30 18.6000 86.4000 1 3 277
1883234N18088 1883 25 NI BB NOT_NAMED 1883-08-23 06:00:00 TS 18.6140 86.1678 main 139 128 _________OP___ -1 18.6000 86.1000 TC 30 18.6280 86.2355 1 3 279
1883234N18088 1883 25 NI BB NOT_NAMED 1883-08-23 09:00:00 TS 18.6462 86.0174 main 128 113 _________PP___ -1 18.6425 85.9500 TC 30 18.6499 86.0849 1 3 284
1883234N18088 1883 25 NI BB NOT_NAMED 1883-08-23 12:00:00 TS 18.6859 85.8709 main 113 103 _________OP___ -1 18.7000 85.8000 TC 30 18.6718 85.9418 1 3 286
1883234N18088 1883 25 NI BB NOT_NAMED 1883-08-23 15:00:00 TS 18.7250 85.7250 main 103 88 _________PO___ -1 18.7500 85.6500 TC 30 18.7000 85.8000 1 3 287
1883234N18088 1883 25 NI BB NOT_NAMED 1883-08-23 18:00:00 TS 18.7714 85.5770 main 88 76 _________OP___ -1 18.8000 85.5000 TC 30 18.7428 85.6541 1 3 289
1883234N18088 1883 25 NI BB NOT_NAMED 1883-08-23 21:00:00 TS 18.8212 85.4287 main 76 61 _________PP___ -1 18.8500 85.3500 TC 30 18.7924 85.5075 1 3 290
1883234N18088 1883 25 NI BB NOT_NAMED 1883-08-24 00:00:00 TS 18.8729 85.2786 main 61 43 _________OP___ -1 18.9000 85.2000 TC 30 18.8459 85.3572 1 3 290
1883234N18088 1883 25 NI BB NOT_NAMED 1883-08-24 03:00:00 TS 18.9250 85.1287 main 43 30 _________PO___ -1 18.9500 85.0575 TC 30 18.9000 85.2000 1 3 289
1883234N18088 1883 25 NI BB NOT_NAMED 1883-08-24 06:00:00 TS 18.9750 84.9681 main 30 10 _________OP___ -1 19.0000 84.9000 TC 30 18.9500 85.0362 1 3 287
1883234N18088 1883 25 NI BB NOT_NAMED 1883-08-24 09:00:00 TS 19.0250 84.7862 main 10 0 _________PP___ -1 19.0500 84.7075 TC 30 18.9999 84.8650 1 4 286
1883234N18088 1883 25 NI BB NOT_NAMED 1883-08-24 12:00:00 TS 19.0750 84.5931 main 0 0 _________OP___ -1 19.1000 84.5000 TC 30 19.0499 84.6862 1 4 285
1883234N18088 1883 25 NI BB NOT_NAMED 1883-08-24 15:00:00 TS 19.1250 84.4000 main 0 0 _________PO___ -1 19.1500 84.3000 TC 30 19.1000 84.5000 1 4 285
1883234N18088 1883 25 NI BB NOT_NAMED 1883-08-24 18:00:00 TS 19.1715 84.2181 main 0 0 _________OP___ -1 19.2000 84.1000 TC 30 19.1501 84.3066 1 4 285
1883234N18088 1883 25 NI BB NOT_NAMED 1883-08-24 21:00:00 TS 19.2201 84.0246 main 0 0 _________PP___ -1 19.2500 83.9000 TC 30 19.2002 84.1076 1 4 285
1883234N18088 1883 25 NI BB NOT_NAMED 1883-08-25 00:00:00 TS 19.2668 83.8365 main 0 0 _________OP___ -1 19.3000 83.7000 TC 30 19.2502 83.9048 1 3 285
1883234N18088 1883 25 NI BB NOT_NAMED 1883-08-25 03:00:00 NR 19.3000 83.7000 main 0 __________O___ -1 TC 19.3000 83.7000 1 3 284

About IBTrACS Database

This database is a web-friendly format of International Best Track Archive for Climate Stewardship (IBTrACS), a global best track data archive curated by NOAA dating back to 1842.

Updated: 2021-10-08